createdAt,value
2018-11-27T00:00:09.133Z,101441.63
2018-11-27T00:03:38.940Z,101436.75
2018-11-27T00:07:03.681Z,101437.42
2018-11-27T00:10:29.318Z,101440.41
2018-11-27T00:13:53.956Z,101433.73
2018-11-27T00:17:18.624Z,101441.81
2018-11-27T00:20:43.269Z,101445.09
2018-11-27T00:24:08.002Z,101435.44
2018-11-27T00:27:32.688Z,101441.08
2018-11-27T00:30:57.364Z,101429.84
2018-11-27T00:34:22.046Z,101431.29
2018-11-27T00:37:46.730Z,101433.30
2018-11-27T00:41:11.405Z,101436.52
2018-11-27T00:44:36.073Z,101446.70
2018-11-27T00:48:00.755Z,101444.16
2018-11-27T00:51:25.463Z,101446.63
2018-11-27T00:54:50.161Z,101452.77
2018-11-27T00:58:14.794Z,101451.72
2018-11-27T01:01:39.555Z,101455.72
2018-11-27T01:05:04.306Z,101458.26
2018-11-27T01:08:29.025Z,101458.86
2018-11-27T01:11:53.717Z,101464.44
2018-11-27T01:15:18.408Z,101463.87
2018-11-27T01:18:43.076Z,101463.92
2018-11-27T01:22:07.798Z,101471.56
2018-11-27T01:25:32.478Z,101468.75
2018-11-27T01:28:57.193Z,101470.44
2018-11-27T01:32:21.892Z,101470.41
2018-11-27T01:35:46.632Z,101471.08
2018-11-27T01:39:11.357Z,101466.86
2018-11-27T01:42:36.056Z,101468.38
2018-11-27T01:46:00.701Z,101472.88
2018-11-27T01:49:25.394Z,101480.29
2018-11-27T01:52:50.309Z,101483.56
2018-11-27T01:56:14.978Z,101480.08
2018-11-27T01:59:39.726Z,101474.67
2018-11-27T02:03:04.468Z,101471.59
2018-11-27T02:06:29.144Z,101476.73
2018-11-27T02:09:53.777Z,101473.47
2018-11-27T02:13:18.510Z,101467.43
2018-11-27T02:16:43.266Z,101466.52
2018-11-27T02:20:10.681Z,101468.98
2018-11-27T02:23:35.391Z,101468.51
2018-11-27T02:27:00.074Z,101471.45
2018-11-27T02:30:25.543Z,101472.79
2018-11-27T02:33:50.192Z,101471.09
2018-11-27T02:37:14.900Z,101477.00
2018-11-27T02:40:39.643Z,101472.93
2018-11-27T02:44:04.320Z,101473.98
2018-11-27T02:47:28.994Z,101474.30
2018-11-27T02:50:53.746Z,101475.92
2018-11-27T02:54:18.405Z,101481.36
2018-11-27T02:57:43.172Z,101482.61
2018-11-27T03:01:07.888Z,101485.05
2018-11-27T03:04:32.566Z,101482.50
2018-11-27T03:07:57.343Z,101485.52
2018-11-27T03:11:22.055Z,101484.03
2018-11-27T03:14:46.745Z,101494.63
2018-11-27T03:18:11.467Z,101492.09
2018-11-27T03:21:36.199Z,101494.56
2018-11-27T03:25:00.919Z,101490.78
2018-11-27T03:28:25.626Z,101490.47
2018-11-27T03:31:50.381Z,101498.11
2018-11-27T03:35:16.692Z,101497.87
2018-11-27T03:38:41.337Z,101500.08
2018-11-27T03:42:06.339Z,101510.58
2018-11-27T03:45:31.068Z,101511.80
2018-11-27T03:48:55.773Z,101516.86
2018-11-27T03:52:20.645Z,101517.33
2018-11-27T03:55:45.388Z,101515.52
2018-11-27T03:59:10.090Z,101518.81
2018-11-27T04:02:34.784Z,101519.94
2018-11-27T04:05:59.487Z,101523.75
2018-11-27T04:09:24.150Z,101524.08
2018-11-27T04:12:48.965Z,101523.02
2018-11-27T04:16:13.705Z,101532.04
2018-11-27T04:19:38.386Z,101530.34
2018-11-27T04:23:03.081Z,101529.88
2018-11-27T04:26:27.845Z,101533.06
2018-11-27T04:29:52.533Z,101533.14
2018-11-27T04:33:17.229Z,101533.00
2018-11-27T04:36:41.894Z,101538.08
2018-11-27T04:40:09.511Z,101538.70
2018-11-27T04:43:34.216Z,101534.86
2018-11-27T04:46:58.914Z,101546.58
2018-11-27T04:50:23.696Z,101550.00
2018-11-27T04:53:48.391Z,101549.86
2018-11-27T04:57:13.053Z,101554.75
2018-11-27T05:00:37.762Z,101555.94
2018-11-27T05:04:02.492Z,101557.36
2018-11-27T05:07:27.231Z,101557.89
2018-11-27T05:10:52.585Z,101564.35
2018-11-27T05:14:17.240Z,101564.81
2018-11-27T05:17:47.724Z,101562.22
2018-11-27T05:21:07.941Z,101564.17
2018-11-27T05:24:32.625Z,101561.41
2018-11-27T05:27:58.597Z,101562.89
2018-11-27T05:31:23.293Z,101556.88
2018-11-27T05:34:48.016Z,101565.05
2018-11-27T05:38:12.712Z,101572.78
2018-11-27T05:41:37.518Z,101576.33
2018-11-27T05:45:02.258Z,101582.52
2018-11-27T05:48:26.946Z,101583.11
2018-11-27T05:51:51.635Z,101575.60
2018-11-27T05:55:16.703Z,101590.84
2018-11-27T05:58:41.486Z,101584.65
2018-11-27T06:02:06.651Z,101585.47
2018-11-27T06:05:31.434Z,101588.36
2018-11-27T06:08:57.001Z,101592.23
2018-11-27T06:12:20.885Z,101598.81
2018-11-27T06:15:45.651Z,101602.83
2018-11-27T06:19:10.359Z,101614.08
2018-11-27T06:22:35.229Z,101622.58
2018-11-27T06:25:59.942Z,101622.05
2018-11-27T06:29:24.700Z,101631.11
2018-11-27T06:32:49.473Z,101625.31
2018-11-27T06:36:14.268Z,101629.76
2018-11-27T06:39:39.072Z,101628.00
2018-11-27T06:43:03.947Z,101630.84
2018-11-27T06:46:28.710Z,101645.42
2018-11-27T06:49:53.460Z,101649.30
2018-11-27T06:53:18.302Z,101648.97
2018-11-27T06:56:43.131Z,101656.08
2018-11-27T07:00:18.798Z,101664.02
2018-11-27T07:03:43.660Z,101670.92
2018-11-27T07:07:08.527Z,101682.52
2018-11-27T07:10:34.529Z,101687.22
2018-11-27T07:13:59.430Z,101691.02
2018-11-27T07:17:24.170Z,101694.27
2018-11-27T07:20:49.133Z,101702.59
2018-11-27T07:24:13.890Z,101701.78
2018-11-27T07:27:51.347Z,101702.44
2018-11-27T07:31:42.115Z,101703.28
2018-11-27T07:35:08.845Z,101700.80
2018-11-27T07:38:33.637Z,101703.59
2018-11-27T07:41:58.427Z,101706.45
2018-11-27T07:45:24.430Z,101706.00
2018-11-27T07:48:50.032Z,101700.91
2018-11-27T07:52:14.869Z,101711.56
2018-11-27T07:55:39.687Z,101716.62
2018-11-27T07:59:04.440Z,101717.40
2018-11-27T08:02:29.381Z,101716.31
2018-11-27T08:05:54.131Z,101716.91
2018-11-27T08:09:18.889Z,101723.78
2018-11-27T08:12:43.690Z,101730.08
2018-11-27T08:16:08.647Z,101726.80
2018-11-27T08:19:33.580Z,101731.89
2018-11-27T08:23:00.583Z,101735.92
2018-11-27T08:26:28.307Z,101732.44
2018-11-27T08:29:53.107Z,101745.45
2018-11-27T08:33:19.674Z,101746.17
2018-11-27T08:36:45.613Z,101752.94
2018-11-27T08:40:13.525Z,101758.55
2018-11-27T08:43:38.303Z,101749.59
2018-11-27T08:47:03.155Z,101749.50
2018-11-27T08:50:28.858Z,101751.47
2018-11-27T08:53:53.650Z,101758.42
2018-11-27T08:57:18.399Z,101754.95
2018-11-27T09:00:43.236Z,101762.16
2018-11-27T09:04:08.117Z,101765.81
2018-11-27T09:07:32.907Z,101763.33
2018-11-27T09:10:57.637Z,101775.26
2018-11-27T09:14:22.356Z,101771.80
2018-11-27T09:17:51.460Z,101777.75
2018-11-27T09:21:16.454Z,101778.45
2018-11-27T09:24:41.234Z,101781.23
2018-11-27T09:28:07.384Z,101789.34
2018-11-27T09:31:38.724Z,101785.75
2018-11-27T09:35:03.562Z,101786.22
2018-11-27T09:38:28.315Z,101780.67
2018-11-27T09:41:53.196Z,101785.77
2018-11-27T09:45:22.258Z,101778.55
2018-11-27T09:48:47.023Z,101782.61
2018-11-27T09:52:11.878Z,101782.48
2018-11-27T09:55:36.614Z,101790.05
2018-11-27T09:59:01.491Z,101772.23
2018-11-27T10:02:26.267Z,101773.03
2018-11-27T10:05:51.069Z,101767.48
2018-11-27T10:09:15.820Z,101765.20
2018-11-27T10:12:40.748Z,101761.92
2018-11-27T10:16:05.524Z,101755.91
2018-11-27T10:19:30.237Z,101756.55
2018-11-27T10:22:54.964Z,101756.81
2018-11-27T10:26:19.700Z,101763.97
2018-11-27T10:29:44.442Z,101767.53
2018-11-27T10:33:11.228Z,101771.65
2018-11-27T10:36:35.987Z,101768.87
2018-11-27T10:40:00.698Z,101764.97
2018-11-27T10:43:25.515Z,101766.54
2018-11-27T10:46:50.287Z,101770.20
2018-11-27T10:50:16.356Z,101772.18
2018-11-27T10:53:41.073Z,101785.73
2018-11-27T10:57:06.417Z,101783.70
2018-11-27T11:00:36.202Z,101784.00
2018-11-27T11:04:00.978Z,101780.91
2018-11-27T11:07:25.722Z,101785.92
2018-11-27T11:10:50.700Z,101781.53
2018-11-27T11:14:15.426Z,101789.39
2018-11-27T11:17:40.233Z,101790.16
2018-11-27T11:21:05.112Z,101787.72
2018-11-27T11:24:29.833Z,101787.30
2018-11-27T11:27:57.437Z,101792.38
2018-11-27T11:31:22.125Z,101787.90
2018-11-27T11:34:46.855Z,101788.19
2018-11-27T11:42:10.796Z,101787.48
2018-11-27T11:50:09.748Z,101793.81
2018-11-27T12:02:27.939Z,101804.39
2018-11-27T12:05:54.366Z,101805.05
2018-11-27T12:09:19.340Z,101800.78
2018-11-27T12:12:45.600Z,101795.48
2018-11-27T12:16:10.364Z,101801.08
2018-11-27T12:19:35.150Z,101797.52
2018-11-27T12:22:59.950Z,101809.77
2018-11-27T12:26:24.841Z,101810.28
2018-11-27T12:29:49.817Z,101814.94
2018-11-27T12:33:14.782Z,101814.93
2018-11-27T12:36:39.725Z,101827.38
2018-11-27T12:40:05.300Z,101829.76
2018-11-27T12:43:30.198Z,101828.23
2018-11-27T12:46:55.226Z,101828.23
2018-11-27T12:50:24.753Z,101834.08
2018-11-27T12:53:56.821Z,101830.34
2018-11-27T12:57:21.801Z,101828.03
2018-11-27T13:00:52.178Z,101826.77
2018-11-27T13:04:17.183Z,101821.17
2018-11-27T13:07:43.009Z,101821.33
2018-11-27T13:11:13.937Z,101826.23
2018-11-27T13:14:39.432Z,101828.75
2018-11-27T13:18:05.308Z,101823.84
2018-11-27T13:21:30.673Z,101824.78
2018-11-27T13:25:13.935Z,101819.33
2018-11-27T13:28:40.956Z,101810.29
2018-11-27T13:32:16.461Z,101803.96
2018-11-27T13:39:47.333Z,101812.84
2018-11-27T13:43:29.541Z,101808.09
2018-11-27T13:46:54.777Z,101806.61
2018-11-27T13:50:19.990Z,101810.84
2018-11-27T13:53:55.073Z,101817.17
2018-11-27T13:57:20.275Z,101827.11
2018-11-27T14:00:46.171Z,101826.31
2018-11-27T14:04:11.746Z,101824.28
2018-11-27T14:07:37.503Z,101825.52
2018-11-27T14:11:02.770Z,101827.35
2018-11-27T14:14:28.174Z,101824.19
2018-11-27T14:17:55.439Z,101835.06
2018-11-27T14:21:28.364Z,101836.43
2018-11-27T14:24:54.573Z,101842.45
2018-11-27T14:28:21.873Z,101835.40
2018-11-27T14:32:02.216Z,101844.52
2018-11-27T14:35:28.444Z,101851.59
2018-11-27T14:38:53.742Z,101852.58
2018-11-27T14:42:19.670Z,101856.98
2018-11-27T14:45:44.707Z,101862.11
2018-11-27T14:49:13.699Z,101865.47
2018-11-27T14:52:38.802Z,101864.20
2018-11-27T14:56:03.508Z,101866.41
2018-11-27T14:59:28.177Z,101871.35
2018-11-27T15:02:53.043Z,101870.23
2018-11-27T15:06:17.773Z,101869.55
2018-11-27T15:09:42.545Z,101863.09
2018-11-27T15:13:08.381Z,101865.41
2018-11-27T15:16:34.877Z,101862.73
2018-11-27T15:19:59.813Z,101866.70
2018-11-27T15:23:24.645Z,101866.13
2018-11-27T15:26:49.556Z,101868.69
2018-11-27T15:30:23.390Z,101867.64
2018-11-27T15:33:48.199Z,101871.21
2018-11-27T15:37:12.926Z,101871.31
2018-11-27T15:40:39.488Z,101869.12
2018-11-27T15:44:04.318Z,101862.35
2018-11-27T15:47:29.070Z,101856.50
2018-11-27T15:50:53.885Z,101852.34
2018-11-27T15:54:18.677Z,101850.84
2018-11-27T15:57:43.657Z,101858.14
2018-11-27T16:01:15.058Z,101854.72
2018-11-27T16:04:39.834Z,101846.77
2018-11-27T16:08:04.640Z,101845.17
2018-11-27T16:11:29.387Z,101839.21
2018-11-27T16:14:54.176Z,101840.38
2018-11-27T16:18:18.967Z,101848.22
2018-11-27T16:21:43.749Z,101855.88
2018-11-27T16:25:11.237Z,101863.17
2018-11-27T16:28:36.015Z,101865.85
2018-11-27T16:32:00.772Z,101862.23
2018-11-27T16:35:25.531Z,101859.45
2018-11-27T16:38:56.708Z,101869.77
2018-11-27T16:42:21.390Z,101883.28
2018-11-27T16:45:46.150Z,101887.32
2018-11-27T16:49:10.859Z,101883.16
2018-11-27T16:52:35.559Z,101884.80
2018-11-27T16:56:00.266Z,101878.39
2018-11-27T16:59:25.067Z,101874.95
2018-11-27T17:02:51.508Z,101887.23
2018-11-27T17:06:16.279Z,101886.44
2018-11-27T17:09:41.031Z,101881.31
2018-11-27T17:13:08.528Z,101882.88
2018-11-27T17:16:33.348Z,101878.73
2018-11-27T17:19:58.130Z,101886.98
2018-11-27T17:23:22.898Z,101888.13
2018-11-27T17:26:47.737Z,101894.83
2018-11-27T17:30:21.515Z,101896.48
2018-11-27T17:34:05.050Z,101901.77
2018-11-27T17:37:29.835Z,101902.39
2018-11-27T17:40:54.799Z,101902.34
2018-11-27T17:44:19.713Z,101898.34
2018-11-27T17:47:45.449Z,101895.05
2018-11-27T17:51:10.181Z,101896.80
2018-11-27T17:54:35.463Z,101895.14
2018-11-27T17:58:00.252Z,101892.20
2018-11-27T18:01:25.012Z,101895.44
2018-11-27T18:04:51.184Z,101899.36
2018-11-27T18:08:15.873Z,101899.65
2018-11-27T18:11:40.595Z,101894.74
2018-11-27T18:15:07.610Z,101889.97
2018-11-27T18:18:32.601Z,101885.33
2018-11-27T18:21:57.477Z,101887.67
2018-11-27T18:25:22.306Z,101879.48
2018-11-27T18:28:49.077Z,101874.59
2018-11-27T18:32:14.021Z,101886.38
2018-11-27T18:35:38.807Z,101877.48
2018-11-27T18:39:03.763Z,101881.84
2018-11-27T18:42:28.503Z,101870.39
2018-11-27T18:45:53.249Z,101872.66
2018-11-27T18:49:18.015Z,101870.23
2018-11-27T18:52:43.612Z,101860.61
2018-11-27T18:56:08.351Z,101878.88
2018-11-27T18:59:33.044Z,101883.34
2018-11-27T19:02:57.987Z,101875.38
2018-11-27T19:06:22.860Z,101869.56
2018-11-27T19:09:47.943Z,101873.44
2018-11-27T19:13:12.711Z,101877.12
2018-11-27T19:16:37.474Z,101873.88
2018-11-27T19:20:02.327Z,101879.73
2018-11-27T19:23:27.779Z,101879.34
2018-11-27T19:26:52.643Z,101877.67
2018-11-27T19:30:19.889Z,101877.43
2018-11-27T19:33:44.650Z,101890.23
2018-11-27T19:37:09.390Z,101892.89
2018-11-27T19:40:34.148Z,101890.73
2018-11-27T19:43:58.918Z,101893.25
2018-11-27T19:47:23.621Z,101883.70
2018-11-27T19:50:49.395Z,101884.53
2018-11-27T19:54:14.201Z,101881.55
2018-11-27T19:57:39.699Z,101887.94
2018-11-27T20:01:04.669Z,101888.50
2018-11-27T20:04:29.411Z,101887.20
2018-11-27T20:07:54.155Z,101888.91
2018-11-27T20:11:18.966Z,101893.12
2018-11-27T20:14:43.755Z,101896.91
2018-11-27T20:18:08.701Z,101905.33
2018-11-27T20:21:33.398Z,101897.90
2018-11-27T20:24:58.233Z,101895.22
2018-11-27T20:28:22.983Z,101894.33
2018-11-27T20:31:47.697Z,101892.23
2018-11-27T20:35:14.197Z,101886.78
2018-11-27T20:38:38.924Z,101880.97
2018-11-27T20:42:03.646Z,101885.31
2018-11-27T20:45:28.535Z,101882.82
2018-11-27T20:48:53.385Z,101882.70
2018-11-27T20:52:18.161Z,101879.16
2018-11-27T20:55:43.590Z,101886.02
2018-11-27T20:59:08.409Z,101893.33
2018-11-27T21:02:33.124Z,101896.37
2018-11-27T21:05:57.799Z,101892.32
2018-11-27T21:09:22.457Z,101883.80
2018-11-27T21:12:47.302Z,101896.74
2018-11-27T21:16:12.042Z,101899.88
2018-11-27T21:19:36.777Z,101900.04
2018-11-27T21:23:01.508Z,101903.77
2018-11-27T21:26:26.271Z,101905.48
2018-11-27T21:29:51.019Z,101896.78
2018-11-27T21:33:16.439Z,101896.49
2018-11-27T21:36:41.211Z,101896.94
2018-11-27T21:40:08.301Z,101903.10
2018-11-27T21:43:33.021Z,101894.17
2018-11-27T21:46:57.735Z,101907.23
2018-11-27T21:50:28.744Z,101894.64
2018-11-27T21:53:53.554Z,101891.22
2018-11-27T21:57:18.360Z,101895.75
2018-11-27T22:00:43.862Z,101895.16
2018-11-27T22:04:08.621Z,101897.18
2018-11-27T22:07:33.442Z,101898.37
2018-11-27T22:10:58.163Z,101900.98
2018-11-27T22:14:22.898Z,101902.64
2018-11-27T22:17:47.676Z,101903.27
2018-11-27T22:21:13.395Z,101896.27
2018-11-27T22:24:38.153Z,101886.80
2018-11-27T22:28:02.892Z,101894.39
2018-11-27T22:31:27.636Z,101888.59
2018-11-27T22:34:52.345Z,101896.14
2018-11-27T22:38:17.056Z,101900.06
2018-11-27T22:41:41.919Z,101899.81
2018-11-27T22:45:12.079Z,101898.69
2018-11-27T22:48:36.837Z,101903.02
2018-11-27T22:52:01.620Z,101900.84
2018-11-27T22:55:26.364Z,101900.56
2018-11-27T22:58:51.104Z,101894.05
2018-11-27T23:02:15.847Z,101899.09
2018-11-27T23:05:40.621Z,101897.25
2018-11-27T23:09:08.594Z,101895.47
2018-11-27T23:12:33.320Z,101884.47
2018-11-27T23:15:58.015Z,101882.04
2018-11-27T23:19:22.797Z,101886.13
2018-11-27T23:22:47.564Z,101890.80
2018-11-27T23:26:12.329Z,101891.64
2018-11-27T23:29:37.048Z,101887.64
2018-11-27T23:33:01.752Z,101885.55
2018-11-27T23:36:26.403Z,101880.66
2018-11-27T23:39:51.127Z,101880.09
2018-11-27T23:43:15.923Z,101868.33
2018-11-27T23:46:40.673Z,101869.80
2018-11-27T23:50:06.503Z,101860.45
2018-11-27T23:53:31.181Z,101867.41
2018-11-27T23:56:55.913Z,101857.53
